createdAt,value
2018-01-18T00:02:03.185Z,3.20
2018-01-18T00:04:31.551Z,3.20
2018-01-18T00:06:59.933Z,3.10
2018-01-18T00:09:28.320Z,3.10
2018-01-18T00:11:56.690Z,3.10
2018-01-18T00:14:25.094Z,3.00
2018-01-18T00:16:54.240Z,3.00
2018-01-18T00:19:22.620Z,3.00
2018-01-18T00:21:51.021Z,3.00
2018-01-18T00:24:19.398Z,2.90
2018-01-18T00:26:47.788Z,2.90
2018-01-18T00:29:15.955Z,2.90
2018-01-18T00:31:44.360Z,3.00
2018-01-18T00:34:13.503Z,3.10
2018-01-18T00:36:41.881Z,3.00
2018-01-18T00:39:10.268Z,3.10
2018-01-18T00:41:38.639Z,3.10
2018-01-18T00:44:07.845Z,3.20
2018-01-18T00:46:37.176Z,3.30
2018-01-18T00:49:05.561Z,3.30
2018-01-18T00:51:34.716Z,3.40
2018-01-18T00:54:03.085Z,3.40
2018-01-18T00:56:31.476Z,3.40
2018-01-18T00:59:00.056Z,3.40
2018-01-18T01:01:28.432Z,3.40
2018-01-18T01:03:56.867Z,3.50
2018-01-18T01:06:25.992Z,3.50
2018-01-18T01:08:54.378Z,3.50
2018-01-18T01:11:22.752Z,3.50
2018-01-18T01:13:51.128Z,3.50
2018-01-18T01:16:19.569Z,3.60
2018-01-18T01:18:48.708Z,3.70
2018-01-18T01:21:17.084Z,3.60
2018-01-18T01:23:45.484Z,3.70
2018-01-18T01:26:13.876Z,3.70
2018-01-18T01:28:42.552Z,3.70
2018-01-18T01:31:10.913Z,3.70
2018-01-18T01:33:39.280Z,3.70
2018-01-18T01:36:07.664Z,3.70
2018-01-18T01:38:36.049Z,3.70
2018-01-18T01:41:04.792Z,3.70
2018-01-18T01:43:33.170Z,3.70
2018-01-18T01:46:01.554Z,3.70
2018-01-18T01:48:38.304Z,3.60
2018-01-18T01:51:07.475Z,3.70
2018-01-18T01:53:35.836Z,3.70
2018-01-18T01:56:04.215Z,3.70
2018-01-18T01:58:32.593Z,3.70
2018-01-18T02:01:00.985Z,3.70
2018-01-18T02:03:29.373Z,3.70
2018-01-18T02:05:57.760Z,3.70
2018-01-18T02:08:26.162Z,3.70
2018-01-18T02:10:55.306Z,3.60
2018-01-18T02:13:23.683Z,3.60
2018-01-18T02:15:52.073Z,3.60
2018-01-18T02:18:20.445Z,3.70
2018-01-18T02:20:48.835Z,3.70
2018-01-18T02:23:17.244Z,3.70
2018-01-18T02:25:46.372Z,3.70
2018-01-18T02:28:14.428Z,3.70
2018-01-18T02:30:42.898Z,3.70
2018-01-18T02:33:11.680Z,3.60
2018-01-18T02:35:40.828Z,3.60
2018-01-18T02:38:09.192Z,3.60
2018-01-18T02:40:37.584Z,3.60
2018-01-18T02:43:05.955Z,3.60
2018-01-18T02:45:34.348Z,3.60
2018-01-18T02:48:02.716Z,3.50
2018-01-18T02:50:31.099Z,3.50
2018-01-18T02:52:59.474Z,3.50
2018-01-18T02:55:27.876Z,3.50
2018-01-18T02:57:56.248Z,3.40
2018-01-18T03:00:24.609Z,3.40
2018-01-18T03:02:53.752Z,3.40
2018-01-18T03:05:22.900Z,3.40
2018-01-18T03:07:51.271Z,3.30
2018-01-18T03:10:19.662Z,3.40
2018-01-18T03:12:48.028Z,3.30
2018-01-18T03:15:16.425Z,3.30
2018-01-18T03:17:44.807Z,3.40
2018-01-18T03:20:13.192Z,3.30
2018-01-18T03:22:41.571Z,3.30
2018-01-18T03:25:09.933Z,3.30
2018-01-18T03:27:38.300Z,3.30
2018-01-18T03:30:06.694Z,3.30
2018-01-18T03:32:35.056Z,3.30
2018-01-18T03:35:03.489Z,3.30
2018-01-18T03:37:32.436Z,3.30
2018-01-18T03:40:00.819Z,3.20
2018-01-18T03:42:29.202Z,3.20
2018-01-18T03:44:57.585Z,3.20
2018-01-18T03:47:26.261Z,3.20
2018-01-18T03:49:54.632Z,3.10
2018-01-18T03:52:22.999Z,3.10
2018-01-18T03:54:51.432Z,3.10
2018-01-18T03:57:20.571Z,3.10
2018-01-18T03:59:48.979Z,3.10
2018-01-18T04:02:17.343Z,3.10
2018-01-18T04:04:45.713Z,3.10
2018-01-18T04:07:14.084Z,3.20
2018-01-18T04:09:42.520Z,3.20
2018-01-18T04:12:12.043Z,3.20
2018-01-18T04:14:40.415Z,3.20
2018-01-18T04:17:09.555Z,3.30
2018-01-18T04:19:38.696Z,3.30
2018-01-18T04:22:07.837Z,3.30
2018-01-18T04:24:36.232Z,3.40
2018-01-18T04:27:04.612Z,3.50
2018-01-18T04:29:32.992Z,3.50
2018-01-18T04:32:01.380Z,3.50
2018-01-18T04:34:29.764Z,3.70
2018-01-18T04:36:57.836Z,3.80
2018-01-18T04:39:26.212Z,3.90
2018-01-18T04:41:54.585Z,4.00
2018-01-18T04:44:22.960Z,4.00
2018-01-18T04:46:51.332Z,4.00
2018-01-18T04:49:20.069Z,3.90
2018-01-18T04:51:48.438Z,4.00
2018-01-18T04:54:17.564Z,4.10
2018-01-18T04:56:45.944Z,4.10
2018-01-18T04:59:14.326Z,4.20
2018-01-18T05:01:42.726Z,4.30
2018-01-18T05:04:11.100Z,4.30
2018-01-18T05:06:39.472Z,4.40
2018-01-18T05:09:07.868Z,4.40
2018-01-18T05:11:36.237Z,4.40
2018-01-18T05:14:04.977Z,4.40
2018-01-18T05:19:03.504Z,4.70
2018-01-18T05:21:32.876Z,4.70
2018-01-18T05:24:01.248Z,4.80
2018-01-18T05:26:30.395Z,4.80
2018-01-18T05:28:58.862Z,4.80
2018-01-18T05:31:27.217Z,5.00
2018-01-18T05:33:55.611Z,4.90
2018-01-18T05:36:24.038Z,5.00
2018-01-18T05:38:52.420Z,5.10
2018-01-18T05:41:21.545Z,5.20
2018-01-18T05:43:49.910Z,5.30
2018-01-18T05:46:18.307Z,5.30
2018-01-18T05:48:46.667Z,5.40
2018-01-18T05:51:15.061Z,5.50
2018-01-18T05:53:43.244Z,5.50
2018-01-18T05:56:11.619Z,5.60
2018-01-18T05:58:40.006Z,5.60
2018-01-18T06:01:09.144Z,5.60
2018-01-18T06:03:37.863Z,5.50
2018-01-18T06:06:06.234Z,5.60
2018-01-18T06:08:34.617Z,5.70
2018-01-18T06:11:03.093Z,5.70
2018-01-18T06:13:31.456Z,5.70
2018-01-18T06:16:00.617Z,5.80
2018-01-18T06:18:28.993Z,5.80
2018-01-18T06:20:57.360Z,5.90
2018-01-18T06:23:25.752Z,6.00
2018-01-18T06:25:54.131Z,6.10
2018-01-18T06:28:22.521Z,6.10
2018-01-18T06:30:50.891Z,6.10
2018-01-18T06:33:19.268Z,6.10
2018-01-18T06:35:47.660Z,6.20
2018-01-18T06:38:16.028Z,6.20
2018-01-18T06:40:44.619Z,6.30
2018-01-18T06:43:13.777Z,6.40
2018-01-18T06:45:42.152Z,6.40
2018-01-18T06:48:10.249Z,6.40
2018-01-18T06:50:38.634Z,6.50
2018-01-18T06:53:07.034Z,6.60
2018-01-18T06:55:35.404Z,6.60
2018-01-18T06:58:04.360Z,6.60
2018-01-18T07:00:32.749Z,6.60
2018-01-18T07:03:01.148Z,6.70
2018-01-18T07:05:29.552Z,6.70
2018-01-18T07:07:58.692Z,6.80
2018-01-18T07:10:27.066Z,6.80
2018-01-18T07:12:55.444Z,6.80
2018-01-18T07:15:23.836Z,6.90
2018-01-18T07:17:52.223Z,6.90
2018-01-18T07:20:20.607Z,6.80
2018-01-18T07:22:48.982Z,6.90
2018-01-18T07:25:17.368Z,6.90
2018-01-18T07:27:45.755Z,7.00
2018-01-18T07:30:14.441Z,7.10
2018-01-18T07:32:42.825Z,7.10
2018-01-18T07:35:11.222Z,7.10
2018-01-18T08:47:43.212Z,9.10
2018-01-18T08:50:11.593Z,9.00
2018-01-18T08:52:39.964Z,9.00
2018-01-18T08:55:08.351Z,9.20
2018-01-18T08:57:36.708Z,9.20
2018-01-18T09:00:05.092Z,9.40
2018-01-18T09:02:33.468Z,9.40
2018-01-18T09:05:01.839Z,9.40
2018-01-18T09:07:30.417Z,9.40
2018-01-18T09:09:58.827Z,9.40
2018-01-18T09:12:27.520Z,9.30
2018-01-18T09:14:55.896Z,9.40
2018-01-18T09:17:24.262Z,9.30
2018-01-18T09:19:53.413Z,9.30
2018-01-18T09:22:21.960Z,9.30
2018-01-18T09:24:50.689Z,9.30
2018-01-18T09:27:19.061Z,9.30
2018-01-18T09:29:48.193Z,9.30
2018-01-18T09:32:16.571Z,9.30
2018-01-18T09:34:44.967Z,9.20
2018-01-18T09:37:14.525Z,9.20
2018-01-18T09:39:42.885Z,9.20
2018-01-18T09:42:12.009Z,9.20
2018-01-18T09:44:40.411Z,9.20
2018-01-18T09:47:08.784Z,9.10
2018-01-18T09:49:37.176Z,9.00
2018-01-18T09:52:05.544Z,8.90
2018-01-18T09:54:33.925Z,8.90
2018-01-18T09:57:02.492Z,8.70
2018-01-18T09:59:30.870Z,8.70
2018-01-18T10:01:59.254Z,8.60
2018-01-18T10:04:27.623Z,8.60
2018-01-18T10:06:56.006Z,8.60
2018-01-18T10:09:24.379Z,8.40
2018-01-18T10:11:52.766Z,8.40
2018-01-18T10:14:21.147Z,8.50
2018-01-18T10:16:49.532Z,8.50
2018-01-18T10:19:17.892Z,8.60
2018-01-18T10:21:46.372Z,8.50
2018-01-18T10:24:14.735Z,8.60
2018-01-18T10:26:43.143Z,8.50
2018-01-18T10:29:11.679Z,8.40
2018-01-18T10:31:40.811Z,8.30
2018-01-18T10:34:09.197Z,8.30
2018-01-18T10:36:37.560Z,8.20
2018-01-18T10:39:05.071Z,8.20
2018-01-18T10:41:33.448Z,8.10
2018-01-18T10:44:01.820Z,8.10
2018-01-18T10:46:30.205Z,7.80
2018-01-18T10:48:59.716Z,7.70
2018-01-18T10:51:29.234Z,7.70
2018-01-18T10:53:58.432Z,8.00
2018-01-18T10:56:27.603Z,7.90
2018-01-18T10:58:56.790Z,7.80
2018-01-18T11:01:25.170Z,7.80
2018-01-18T11:03:53.627Z,7.70
2018-01-18T11:06:23.138Z,7.70
2018-01-18T11:08:51.557Z,7.50
2018-01-18T11:11:20.703Z,7.40
2018-01-18T11:13:49.971Z,7.40
2018-01-18T11:16:18.368Z,7.40
2018-01-18T11:18:46.764Z,7.30
2018-01-18T11:21:15.150Z,7.20
2018-01-18T11:23:43.536Z,7.10
2018-01-18T11:26:11.914Z,7.10
2018-01-18T11:28:40.120Z,7.10
2018-01-18T11:31:09.260Z,7.10
2018-01-18T11:33:37.627Z,7.00
2018-01-18T11:36:06.010Z,7.00
2018-01-18T11:38:34.393Z,6.90
2018-01-18T11:41:02.972Z,6.90
2018-01-18T11:43:31.327Z,6.80
2018-01-18T11:45:59.683Z,6.90
2018-01-18T11:48:28.113Z,6.90
2018-01-18T11:50:56.477Z,6.90
2018-01-18T11:53:24.861Z,6.80
2018-01-18T11:55:53.216Z,6.80
2018-01-18T11:58:21.580Z,6.70
2018-01-18T12:00:50.752Z,6.80
2018-01-18T12:03:19.136Z,6.80
2018-01-18T12:05:47.533Z,6.60
2018-01-18T12:08:16.676Z,6.60
2018-01-18T12:10:45.080Z,6.60
2018-01-18T12:13:13.461Z,6.50
2018-01-18T12:15:41.832Z,6.50
2018-01-18T12:18:10.285Z,6.50
2018-01-18T12:20:38.674Z,6.50
2018-01-18T12:23:07.041Z,6.50
2018-01-18T12:25:35.423Z,6.40
2018-01-18T12:28:04.180Z,6.40
2018-01-18T12:30:33.372Z,6.40
2018-01-18T12:33:02.501Z,6.40
2018-01-18T12:35:30.881Z,6.30
2018-01-18T12:37:59.258Z,6.30
2018-01-18T12:40:27.646Z,6.30
2018-01-18T12:42:57.787Z,6.30
2018-01-18T12:45:26.160Z,6.20
2018-01-18T12:47:54.546Z,6.10
2018-01-18T12:50:22.930Z,6.10
2018-01-18T12:52:51.378Z,5.80
2018-01-18T12:55:21.872Z,5.70
2018-01-18T12:57:51.006Z,5.70
2018-01-18T13:00:19.387Z,5.70
2018-01-18T13:02:47.782Z,5.60
2018-01-18T13:05:16.160Z,5.50
2018-01-18T13:07:44.891Z,5.40
2018-01-18T13:10:12.996Z,5.40
2018-01-18T13:12:41.463Z,5.40
2018-01-18T13:15:09.885Z,5.50
2018-01-18T13:17:38.424Z,5.40
2018-01-18T13:20:06.812Z,5.40
2018-01-18T13:22:35.186Z,5.50
2018-01-18T13:25:03.565Z,5.50
2018-01-18T13:27:31.946Z,5.50
2018-01-18T13:30:00.316Z,5.50
2018-01-18T13:32:29.072Z,5.40
2018-01-18T13:34:58.215Z,5.30
2018-01-18T13:37:26.572Z,5.30
2018-01-18T13:39:54.945Z,5.20
2018-01-18T13:42:23.352Z,5.10
2018-01-18T13:44:51.747Z,5.00
2018-01-18T13:47:20.124Z,4.90
2018-01-18T13:49:48.487Z,4.90
2018-01-18T13:52:16.868Z,4.90
2018-01-18T13:54:45.284Z,5.00
2018-01-18T13:57:14.448Z,5.00
2018-01-18T13:59:42.819Z,4.90
2018-01-18T14:02:11.191Z,5.00
2018-01-18T14:04:39.580Z,5.00
2018-01-18T14:07:07.956Z,5.10
2018-01-18T14:09:36.697Z,5.10
2018-01-18T14:12:05.063Z,5.10
2018-01-18T14:14:34.200Z,5.30
2018-01-18T14:17:02.668Z,5.20
2018-01-18T14:19:31.036Z,5.30
2018-01-18T14:21:59.530Z,5.30
2018-01-18T14:24:27.925Z,5.50
2018-01-18T14:26:56.335Z,5.50
2018-01-18T14:29:24.723Z,5.50
2018-01-18T14:31:53.879Z,5.50
2018-01-18T14:34:22.326Z,5.40
2018-01-18T14:36:50.846Z,5.40
2018-01-18T14:39:19.209Z,5.30
2018-01-18T14:41:47.580Z,5.40
2018-01-18T14:44:15.940Z,5.30
2018-01-18T14:46:44.592Z,5.00
2018-01-18T14:49:12.964Z,4.60
2018-01-18T14:51:41.328Z,4.50
2018-01-18T14:54:10.319Z,4.40
2018-01-18T14:56:38.898Z,4.40
2018-01-18T14:59:07.316Z,4.40
2018-01-18T15:01:36.453Z,4.30
2018-01-18T15:04:04.811Z,4.30
2018-01-18T15:06:33.213Z,4.40
2018-01-18T15:09:01.872Z,4.20
2018-01-18T15:11:30.480Z,4.30
2018-01-18T15:13:58.895Z,4.30
2018-01-18T15:16:28.061Z,4.30
2018-01-18T15:18:56.444Z,4.30
2018-01-18T15:21:24.860Z,4.30
2018-01-18T15:23:53.309Z,4.40
2018-01-18T15:26:22.089Z,4.40
2018-01-18T15:28:50.600Z,4.30
2018-01-18T15:31:19.799Z,4.40
2018-01-18T15:33:48.947Z,4.40
2018-01-18T15:36:19.205Z,4.40
2018-01-18T15:38:48.347Z,4.50
2018-01-18T15:41:16.874Z,4.50
2018-01-18T15:43:50.425Z,4.60
2018-01-18T15:46:18.823Z,4.60
2018-01-18T15:48:47.096Z,4.60
2018-01-18T15:51:15.748Z,4.70
2018-01-18T15:53:44.492Z,4.70
2018-01-18T15:56:12.953Z,4.70
2018-01-18T15:58:41.323Z,4.70
2018-01-18T16:01:09.701Z,4.70
2018-01-18T16:03:38.089Z,4.70
2018-01-18T16:06:06.461Z,4.80
2018-01-18T16:08:34.848Z,4.80
2018-01-18T16:11:02.909Z,4.70
2018-01-18T16:13:31.486Z,4.80
2018-01-18T16:15:59.860Z,4.90
2018-01-18T16:18:28.240Z,4.80
2018-01-18T16:20:56.600Z,4.80
2018-01-18T16:23:25.052Z,4.80
2018-01-18T16:25:53.439Z,4.80
2018-01-18T16:28:21.810Z,4.80
2018-01-18T16:30:50.244Z,4.80
2018-01-18T16:33:19.828Z,4.70
2018-01-18T16:35:49.011Z,4.70
2018-01-18T16:38:18.240Z,4.60
2018-01-18T16:40:46.500Z,4.70
2018-01-18T16:43:14.979Z,4.70
2018-01-18T16:45:44.155Z,4.70
2018-01-18T16:48:12.556Z,4.60
2018-01-18T16:50:41.058Z,4.80
2018-01-18T16:53:09.446Z,4.70
2018-01-18T16:55:37.916Z,4.70
2018-01-18T16:58:06.364Z,4.60
2018-01-18T17:00:34.844Z,4.70
2018-01-18T17:03:03.431Z,4.70
2018-01-18T17:05:32.577Z,4.80
2018-01-18T17:08:01.004Z,4.80
2018-01-18T17:10:30.152Z,4.80
2018-01-18T17:12:58.508Z,4.80
2018-01-18T17:15:26.906Z,4.80
2018-01-18T17:17:55.307Z,4.70
2018-01-18T17:20:23.963Z,4.70
2018-01-18T17:22:52.334Z,4.60
2018-01-18T17:25:20.565Z,4.60
2018-01-18T17:27:48.981Z,4.60
2018-01-18T17:30:17.157Z,4.60
2018-01-18T17:32:45.544Z,4.60
2018-01-18T17:35:13.916Z,4.50
2018-01-18T17:37:42.341Z,4.30
2018-01-18T17:40:10.771Z,4.30
2018-01-18T17:42:39.135Z,4.20
2018-01-18T17:45:07.505Z,4.20
2018-01-18T17:47:35.904Z,4.20
2018-01-18T17:50:03.610Z,4.20
2018-01-18T17:52:32.009Z,4.20
2018-01-18T17:55:01.506Z,4.20
2018-01-18T17:57:30.662Z,4.20
2018-01-18T17:59:59.025Z,4.20
2018-01-18T18:02:27.421Z,4.10
2018-01-18T18:04:55.776Z,4.20
2018-01-18T18:07:24.447Z,4.10
2018-01-18T18:09:52.894Z,4.10
2018-01-18T18:12:21.621Z,4.10
2018-01-18T18:14:50.121Z,4.20
2018-01-18T18:17:18.519Z,4.20
2018-01-18T18:19:46.897Z,4.30
2018-01-18T18:22:16.067Z,4.30
2018-01-18T18:24:44.455Z,4.30
2018-01-18T18:27:13.397Z,4.30
2018-01-18T18:29:41.820Z,4.40
2018-01-18T18:32:10.242Z,4.40
2018-01-18T18:34:38.600Z,4.50
2018-01-18T18:37:06.989Z,4.50
2018-01-18T18:39:35.391Z,4.50
2018-01-18T18:42:04.699Z,4.50
2018-01-18T18:44:33.989Z,4.50
2018-01-18T18:47:02.421Z,4.50
2018-01-18T18:49:30.812Z,4.40
2018-01-18T18:51:59.363Z,4.40
2018-01-18T18:54:27.747Z,4.40
2018-01-18T18:56:56.107Z,4.30
2018-01-18T18:59:24.470Z,4.40
2018-01-18T19:01:53.619Z,4.10
2018-01-18T19:04:22.003Z,4.10
2018-01-18T19:06:50.431Z,4.10
2018-01-18T19:09:19.666Z,3.90
2018-01-18T19:11:48.040Z,3.90
2018-01-18T19:14:16.400Z,3.80
2018-01-18T19:16:45.552Z,3.70
2018-01-18T19:19:13.958Z,3.60
2018-01-18T19:21:43.119Z,3.60
2018-01-18T19:24:11.552Z,3.60
2018-01-18T19:26:39.979Z,3.50
2018-01-18T19:29:08.377Z,3.50
2018-01-18T19:31:37.589Z,3.50
2018-01-18T19:34:06.713Z,3.50
2018-01-18T19:36:34.912Z,3.50
2018-01-18T19:39:02.988Z,3.50
2018-01-18T19:41:31.359Z,3.60
2018-01-18T19:43:59.723Z,3.60
2018-01-18T19:46:27.916Z,3.70
2018-01-18T19:48:56.273Z,3.60
2018-01-18T19:51:24.642Z,3.70
2018-01-18T19:53:53.083Z,3.70
2018-01-18T19:56:22.255Z,3.60
2018-01-18T19:58:50.450Z,3.50
2018-01-18T20:01:18.846Z,3.50
2018-01-18T20:03:47.984Z,3.60
2018-01-18T20:06:16.377Z,3.60
2018-01-18T20:08:44.769Z,3.70
2018-01-18T20:11:13.132Z,3.70
2018-01-18T20:13:41.559Z,3.80
2018-01-18T20:16:09.979Z,3.70
2018-01-18T20:18:38.339Z,3.60
2018-01-18T20:21:06.747Z,3.50
2018-01-18T20:23:35.149Z,3.60
2018-01-18T20:26:03.669Z,3.50
2018-01-18T20:28:32.067Z,3.40
2018-01-18T20:31:01.230Z,3.40
2018-01-18T20:33:30.226Z,3.40
2018-01-18T20:35:58.700Z,3.40
2018-01-18T20:38:27.146Z,3.30
2018-01-18T20:40:55.523Z,3.30
2018-01-18T20:43:23.888Z,3.30
2018-01-18T20:45:52.305Z,3.30
2018-01-18T20:48:21.443Z,3.30
2018-01-18T20:50:50.332Z,3.30
2018-01-18T20:53:18.715Z,3.30
2018-01-18T20:55:47.093Z,3.30
2018-01-18T20:58:15.479Z,3.30
2018-01-18T21:00:43.973Z,3.30
2018-01-18T21:03:12.155Z,3.30
2018-01-18T21:05:40.674Z,3.30
2018-01-18T21:08:09.849Z,3.60
2018-01-18T21:10:38.996Z,3.60
2018-01-18T21:13:07.375Z,3.60
2018-01-18T21:15:35.917Z,3.60
2018-01-18T21:18:05.059Z,3.70
2018-01-18T21:20:34.213Z,3.70
2018-01-18T21:23:03.415Z,3.70
2018-01-18T21:25:32.552Z,3.60
2018-01-18T21:28:00.917Z,3.60
2018-01-18T21:30:30.210Z,3.50
2018-01-18T21:32:58.692Z,3.30
2018-01-18T21:35:27.076Z,3.30
2018-01-18T21:37:55.471Z,3.10
2018-01-18T21:40:23.855Z,2.90
2018-01-18T21:42:52.326Z,2.80
2018-01-18T21:45:20.728Z,2.80
2018-01-18T21:47:49.139Z,2.80
2018-01-18T21:50:18.268Z,2.50
2018-01-18T21:52:46.658Z,2.50
2018-01-18T21:55:15.021Z,2.50
2018-01-18T21:57:43.434Z,2.40
2018-01-18T22:00:11.844Z,2.30
2018-01-18T22:02:40.966Z,1.50
2018-01-18T22:05:09.347Z,1.40
2018-01-18T22:07:37.736Z,1.10
2018-01-18T22:10:06.407Z,1.00
2018-01-18T22:12:34.792Z,0.90
2018-01-18T22:15:03.187Z,0.80
2018-01-18T22:17:33.347Z,0.70
2018-01-18T22:20:01.708Z,0.70
2018-01-18T22:22:30.097Z,0.70
2018-01-18T22:24:59.252Z,0.80
2018-01-18T22:27:27.619Z,0.70
2018-01-18T22:29:56.004Z,0.80
2018-01-18T22:32:24.395Z,0.90
2018-01-18T22:34:52.818Z,1.10
2018-01-18T22:37:22.099Z,1.20
2018-01-18T22:39:51.291Z,1.20
2018-01-18T22:42:19.655Z,1.20
2018-01-18T22:44:48.039Z,1.30
2018-01-18T22:47:16.407Z,1.30
2018-01-18T22:49:44.776Z,1.30
2018-01-18T22:52:13.173Z,1.30
2018-01-18T22:54:41.527Z,1.30
2018-01-18T22:57:09.887Z,1.30
2018-01-18T22:59:38.343Z,1.30
2018-01-18T23:02:07.844Z,1.30
2018-01-18T23:04:37.342Z,1.20
2018-01-18T23:07:05.736Z,1.20
2018-01-18T23:09:34.868Z,1.20
2018-01-18T23:12:03.247Z,1.20
2018-01-18T23:14:31.632Z,1.20
2018-01-18T23:16:59.994Z,1.20
2018-01-18T23:19:28.350Z,1.20
2018-01-18T23:21:56.733Z,1.20
2018-01-18T23:24:25.156Z,1.20
2018-01-18T23:26:53.532Z,1.20
2018-01-18T23:29:21.921Z,1.20
2018-01-18T23:31:50.359Z,1.30
2018-01-18T23:34:18.732Z,1.30
2018-01-18T23:36:47.120Z,1.30
2018-01-18T23:39:15.508Z,1.30
2018-01-18T23:41:43.877Z,1.30
2018-01-18T23:44:12.063Z,1.30
2018-01-18T23:46:40.243Z,1.30
2018-01-18T23:49:08.412Z,1.40
2018-01-18T23:51:36.792Z,1.40
2018-01-18T23:54:05.162Z,1.40
2018-01-18T23:56:33.523Z,1.40
2018-01-18T23:59:01.925Z,1.40
